createdAt,value
2023-05-12T00:01:22.927Z,12.54
2023-05-12T00:03:49.603Z,12.46
2023-05-12T00:06:16.385Z,12.42
2023-05-12T00:08:42.840Z,12.48
2023-05-12T00:11:09.291Z,12.43
2023-05-12T00:13:35.863Z,12.46
2023-05-12T00:16:03.383Z,12.50
2023-05-12T00:18:30.056Z,12.51
2023-05-12T00:20:56.818Z,12.51
2023-05-12T00:23:23.359Z,12.43
2023-05-12T00:25:50.294Z,12.34
2023-05-12T00:28:18.517Z,12.39
2023-05-12T00:30:45.222Z,12.36
2023-05-12T00:33:11.743Z,12.30
2023-05-12T00:35:38.182Z,12.27
2023-05-12T00:38:04.716Z,12.22
2023-05-12T00:40:31.155Z,12.20
2023-05-12T00:42:57.658Z,12.22
2023-05-12T00:45:24.393Z,12.17
2023-05-12T00:47:52.912Z,12.16
2023-05-12T00:50:20.187Z,12.22
2023-05-12T00:52:48.397Z,12.12
2023-05-12T00:55:15.539Z,12.17
2023-05-12T00:57:43.412Z,12.15
2023-05-12T01:00:10.750Z,12.12
2023-05-12T01:02:37.673Z,12.17
2023-05-12T01:05:04.967Z,12.15
2023-05-12T01:07:33.075Z,12.09
2023-05-12T01:09:59.756Z,12.17
2023-05-12T01:12:27.981Z,12.18
2023-05-12T01:14:56.289Z,12.12
2023-05-12T01:17:29.938Z,12.09
2023-05-12T01:20:00.315Z,12.07
2023-05-12T01:22:31.496Z,12.00
2023-05-12T01:25:01.498Z,12.02
2023-05-12T01:27:28.879Z,12.03
2023-05-12T01:29:58.602Z,12.08
2023-05-12T01:32:25.182Z,12.06
2023-05-12T01:34:51.969Z,12.08
2023-05-12T01:37:19.038Z,12.05
2023-05-12T01:39:45.527Z,12.07
2023-05-12T01:42:11.957Z,12.02
2023-05-12T01:44:38.989Z,12.01
2023-05-12T01:47:05.599Z,12.01
2023-05-12T01:49:32.157Z,11.97
2023-05-12T01:51:58.691Z,11.95
2023-05-12T01:54:25.168Z,11.97
2023-05-12T01:56:51.671Z,12.02
2023-05-12T01:59:18.174Z,12.02
2023-05-12T02:01:44.775Z,11.97
2023-05-12T02:04:11.545Z,11.92
2023-05-12T02:06:38.320Z,11.97
2023-05-12T02:09:04.909Z,11.96
2023-05-12T02:11:31.445Z,11.88
2023-05-12T02:13:58.594Z,11.93
2023-05-12T02:16:25.373Z,11.91
2023-05-12T02:18:51.952Z,11.93
2023-05-12T02:21:18.550Z,11.90
2023-05-12T02:23:45.192Z,11.87
2023-05-12T02:26:11.672Z,11.91
2023-05-12T02:28:38.767Z,11.89
2023-05-12T02:31:05.212Z,11.89
2023-05-12T02:33:31.743Z,11.92
2023-05-12T02:35:58.202Z,11.87
2023-05-12T02:38:24.680Z,11.90
2023-05-12T02:40:51.151Z,11.92
2023-05-12T02:43:17.585Z,11.94
2023-05-12T02:45:44.353Z,11.94
2023-05-12T02:48:10.959Z,11.89
2023-05-12T02:50:37.573Z,11.85
2023-05-12T02:53:04.349Z,11.88
2023-05-12T02:55:30.876Z,11.87
2023-05-12T02:57:57.462Z,11.87
2023-05-12T03:00:23.973Z,11.87
2023-05-12T03:02:50.566Z,11.87
2023-05-12T03:05:17.370Z,11.87
2023-05-12T03:07:43.870Z,11.85
2023-05-12T03:10:10.630Z,11.85
2023-05-12T03:12:37.296Z,11.88
2023-05-12T03:15:04.698Z,11.91
2023-05-12T03:17:31.272Z,11.88
2023-05-12T03:19:57.876Z,11.82
2023-05-12T03:22:24.510Z,11.80
2023-05-12T03:24:51.696Z,11.78
2023-05-12T03:27:18.504Z,11.80
2023-05-12T03:29:44.932Z,11.75
2023-05-12T03:32:11.452Z,11.78
2023-05-12T03:34:38.203Z,11.80
2023-05-12T03:37:04.889Z,11.77
2023-05-12T03:39:31.714Z,11.78
2023-05-12T03:41:58.272Z,11.79
2023-05-12T03:44:24.861Z,11.76
2023-05-12T03:46:51.372Z,11.77
2023-05-12T03:49:17.903Z,11.76
2023-05-12T03:51:44.374Z,11.76
2023-05-12T03:54:10.900Z,11.74
2023-05-12T03:56:37.432Z,11.78
2023-05-12T03:59:04.114Z,11.79
2023-05-12T04:01:30.579Z,11.69
2023-05-12T04:03:57.155Z,11.72
2023-05-12T04:06:23.594Z,11.67
2023-05-12T04:08:50.045Z,11.75
2023-05-12T04:11:16.588Z,11.73
2023-05-12T04:13:43.075Z,11.83
2023-05-12T04:16:09.927Z,11.78
2023-05-12T04:18:36.773Z,11.83
2023-05-12T04:21:03.719Z,11.89
2023-05-12T04:23:30.294Z,11.90
2023-05-12T04:25:56.865Z,11.87
2023-05-12T04:28:23.340Z,11.92
2023-05-12T04:30:49.889Z,11.94
2023-05-12T04:33:16.388Z,11.98
2023-05-12T04:35:42.873Z,12.03
2023-05-12T04:38:09.416Z,11.96
2023-05-12T04:40:35.954Z,12.02
2023-05-12T04:43:02.388Z,12.10
2023-05-12T04:45:28.982Z,12.13
2023-05-12T04:47:56.232Z,12.07
2023-05-12T04:50:22.735Z,12.14
2023-05-12T04:52:49.237Z,12.15
2023-05-12T04:55:15.744Z,12.16
2023-05-12T04:57:42.217Z,12.10
2023-05-12T05:00:09.364Z,12.18
2023-05-12T05:02:36.042Z,12.19
2023-05-12T05:05:02.664Z,12.25
2023-05-12T05:07:29.128Z,12.28
2023-05-12T05:09:55.580Z,12.35
2023-05-12T05:12:22.043Z,12.33
2023-05-12T05:14:48.908Z,12.23
2023-05-12T05:17:15.563Z,12.29
2023-05-12T05:19:54.922Z,12.34
2023-05-12T05:22:25.233Z,12.36
2023-05-12T05:24:51.991Z,12.42
2023-05-12T05:27:18.923Z,12.46
2023-05-12T05:29:45.773Z,12.54
2023-05-12T05:32:12.423Z,12.57
2023-05-12T05:34:38.990Z,12.59
2023-05-12T05:37:05.721Z,12.56
2023-05-12T05:39:32.321Z,12.60
2023-05-12T05:41:58.849Z,12.64
2023-05-12T05:44:25.572Z,12.60
2023-05-12T05:46:53.221Z,12.61
2023-05-12T05:49:19.955Z,12.71
2023-05-12T05:51:46.412Z,12.70
2023-05-12T05:54:12.857Z,12.73
2023-05-12T05:56:39.277Z,12.82
2023-05-12T05:59:06.300Z,12.87
2023-05-12T06:01:33.029Z,12.91
2023-05-12T06:03:59.845Z,12.97
2023-05-12T06:06:26.586Z,13.04
2023-05-12T06:08:55.930Z,13.07
2023-05-12T06:11:22.663Z,13.12
2023-05-12T06:13:49.172Z,13.13
2023-05-12T06:16:15.682Z,13.12
2023-05-12T06:18:42.234Z,13.16
2023-05-12T06:21:09.557Z,13.20
2023-05-12T06:23:36.188Z,13.25
2023-05-12T06:26:03.140Z,13.32
2023-05-12T06:28:29.678Z,13.38
2023-05-12T06:30:56.177Z,13.42
2023-05-12T06:33:22.728Z,13.41
2023-05-12T06:35:49.185Z,13.49
2023-05-12T06:38:15.919Z,13.58
2023-05-12T06:40:42.405Z,13.65
2023-05-12T06:43:08.880Z,13.64
2023-05-12T06:45:35.369Z,13.70
2023-05-12T06:48:03.330Z,13.76
2023-05-12T06:50:30.114Z,13.81
2023-05-12T06:52:57.073Z,13.90
2023-05-12T06:55:24.136Z,13.87
2023-05-12T06:57:55.775Z,14.01
2023-05-12T07:00:26.137Z,14.03
2023-05-12T07:02:52.817Z,14.11
2023-05-12T07:05:19.830Z,14.15
2023-05-12T07:07:46.618Z,14.23
2023-05-12T07:10:13.126Z,14.27
2023-05-12T07:12:39.674Z,14.30
2023-05-12T07:15:06.909Z,14.42
2023-05-12T07:17:33.340Z,14.61
2023-05-12T07:19:59.855Z,14.76
2023-05-12T07:22:26.497Z,14.79
2023-05-12T07:24:52.997Z,14.72
2023-05-12T07:27:19.563Z,14.82
2023-05-12T07:29:46.057Z,14.93
2023-05-12T07:32:12.589Z,15.06
2023-05-12T07:34:39.168Z,15.19
2023-05-12T07:37:06.475Z,15.33
2023-05-12T07:39:33.117Z,15.40
2023-05-12T07:41:59.640Z,15.60
2023-05-12T07:44:26.875Z,15.78
2023-05-12T07:46:53.393Z,15.86
2023-05-12T07:49:19.881Z,15.93
2023-05-12T07:51:46.464Z,16.14
2023-05-12T07:54:13.482Z,16.15
2023-05-12T07:56:40.074Z,16.24
2023-05-12T07:59:07.286Z,16.22
2023-05-12T08:01:34.877Z,16.15
2023-05-12T08:04:01.607Z,16.06
2023-05-12T08:06:28.232Z,16.14
2023-05-12T08:08:57.963Z,16.25
2023-05-12T08:11:26.068Z,16.42
2023-05-12T08:13:53.058Z,16.55
2023-05-12T08:16:19.721Z,16.73
2023-05-12T08:18:46.384Z,16.88
2023-05-12T08:21:12.925Z,16.94
2023-05-12T08:23:39.491Z,16.95
2023-05-12T08:26:06.231Z,17.08
2023-05-12T08:28:32.904Z,17.13
2023-05-12T08:31:00.468Z,17.14
2023-05-12T08:33:28.160Z,17.18
2023-05-12T08:35:55.089Z,17.21
2023-05-12T08:38:22.064Z,17.35
2023-05-12T08:41:19.373Z,17.53
2023-05-12T08:43:50.607Z,17.61
2023-05-12T08:46:17.417Z,17.64
2023-05-12T08:48:46.329Z,17.83
2023-05-12T08:51:13.823Z,17.95
2023-05-12T08:53:42.337Z,18.07
2023-05-12T08:58:42.777Z,18.46
2023-05-12T09:01:11.670Z,18.59
2023-05-12T09:03:38.945Z,18.71
2023-05-12T09:06:06.722Z,18.71
2023-05-12T09:08:34.987Z,18.75
2023-05-12T09:11:02.548Z,18.75
2023-05-12T09:14:04.232Z,18.52
2023-05-12T09:16:34.271Z,18.34
2023-05-12T09:19:03.108Z,18.32
2023-05-12T09:21:30.547Z,18.23
2023-05-12T09:24:05.843Z,18.20
2023-05-12T09:26:44.893Z,18.27
2023-05-12T09:29:18.078Z,18.29
2023-05-12T09:31:55.330Z,18.42
2023-05-12T09:34:30.520Z,18.49
2023-05-12T09:36:58.906Z,18.52
2023-05-12T09:39:25.746Z,18.54
2023-05-12T09:41:52.767Z,18.56
2023-05-12T09:44:19.600Z,18.62
2023-05-12T09:46:46.655Z,18.65
2023-05-12T09:49:13.963Z,18.72
2023-05-12T09:51:41.501Z,18.79
2023-05-12T09:54:08.189Z,19.03
2023-05-12T09:56:37.638Z,19.21
2023-05-12T09:59:05.386Z,19.34
2023-05-12T10:01:31.995Z,19.26
2023-05-12T10:03:59.184Z,19.29
2023-05-12T10:06:37.937Z,19.22
2023-05-12T10:09:11.718Z,19.16
2023-05-12T10:11:38.391Z,19.28
2023-05-12T10:14:06.619Z,19.38
2023-05-12T10:16:33.542Z,19.51
2023-05-12T10:19:00.479Z,19.57
2023-05-12T10:21:27.531Z,19.59
2023-05-12T10:23:54.589Z,19.61
2023-05-12T10:26:21.860Z,19.74
2023-05-12T10:28:49.833Z,19.87
2023-05-12T10:31:16.958Z,19.74
2023-05-12T10:33:43.496Z,19.68
2023-05-12T10:36:19.402Z,19.68
2023-05-12T10:38:51.408Z,19.69
2023-05-12T10:41:29.421Z,19.68
2023-05-12T10:43:55.885Z,19.75
2023-05-12T10:46:24.323Z,19.76
2023-05-12T10:48:59.087Z,19.77
2023-05-12T10:51:31.121Z,19.80
2023-05-12T10:54:02.139Z,19.89
2023-05-12T10:56:31.648Z,19.91
2023-05-12T10:59:15.050Z,20.04
2023-05-12T11:01:44.505Z,20.18
2023-05-12T11:04:13.444Z,20.32
2023-05-12T11:06:41.203Z,20.34
2023-05-12T11:09:09.292Z,20.28
2023-05-12T11:11:36.391Z,20.33
2023-05-12T11:14:03.028Z,20.35
2023-05-12T11:16:29.625Z,20.36
2023-05-12T11:19:05.932Z,20.46
2023-05-12T11:21:33.195Z,20.46
2023-05-12T11:24:01.251Z,20.47
2023-05-12T11:26:28.828Z,20.65
2023-05-12T11:28:58.278Z,20.85
2023-05-12T11:31:24.998Z,21.02
2023-05-12T11:34:12.105Z,21.13
2023-05-12T11:36:42.734Z,21.29
2023-05-12T11:39:20.867Z,21.28
2023-05-12T11:41:48.821Z,21.36
2023-05-12T11:44:17.433Z,21.40
2023-05-12T11:47:00.539Z,21.48
2023-05-12T11:49:32.062Z,21.52
2023-05-12T11:52:02.772Z,21.46
2023-05-12T11:54:30.354Z,21.49
2023-05-12T11:56:58.034Z,21.34
2023-05-12T11:59:29.832Z,21.40
2023-05-12T12:02:00.667Z,21.52
2023-05-12T12:04:37.308Z,21.46
2023-05-12T12:07:06.128Z,21.38
2023-05-12T12:09:37.845Z,21.60
2023-05-12T12:12:05.802Z,21.96
2023-05-12T12:14:33.079Z,21.76
2023-05-12T12:17:00.301Z,21.66
2023-05-12T12:19:27.893Z,21.64
2023-05-12T12:21:55.134Z,21.57
2023-05-12T12:24:21.886Z,21.29
2023-05-12T12:26:48.417Z,21.16
2023-05-12T12:29:14.921Z,21.24
2023-05-12T12:31:41.669Z,21.40
2023-05-12T12:34:08.532Z,21.78
2023-05-12T12:36:35.670Z,22.12
2023-05-12T12:39:03.210Z,22.69
2023-05-12T12:41:29.709Z,22.69
2023-05-12T12:43:56.226Z,22.77
2023-05-12T12:46:22.769Z,22.60
2023-05-12T12:48:49.407Z,22.26
2023-05-12T12:51:16.116Z,22.24
2023-05-12T12:53:45.715Z,22.27
2023-05-12T12:56:12.409Z,22.53
2023-05-12T12:58:39.096Z,22.82
2023-05-12T13:01:05.714Z,23.03
2023-05-12T13:03:32.251Z,22.92
2023-05-12T13:05:59.031Z,22.70
2023-05-12T13:08:25.620Z,22.39
2023-05-12T13:10:52.278Z,22.43
2023-05-12T13:13:18.783Z,22.31
2023-05-12T13:15:45.228Z,22.26
2023-05-12T13:18:11.899Z,22.37
2023-05-12T13:20:40.145Z,22.38
2023-05-12T13:23:06.595Z,22.47
2023-05-12T13:25:33.090Z,22.61
2023-05-12T13:27:59.619Z,22.79
2023-05-12T13:30:26.099Z,23.04
2023-05-12T13:32:52.892Z,22.98
2023-05-12T13:35:19.610Z,22.78
2023-05-12T13:37:46.247Z,22.76
2023-05-12T13:40:13.076Z,23.02
2023-05-12T13:42:39.638Z,23.12
2023-05-12T13:45:06.597Z,23.28
2023-05-12T13:47:33.034Z,23.35
2023-05-12T13:49:59.549Z,23.28
2023-05-12T13:52:26.016Z,23.45
2023-05-12T13:54:52.514Z,23.66
2023-05-12T13:57:19.044Z,23.71
2023-05-12T13:59:45.613Z,23.67
2023-05-12T14:02:13.812Z,23.73
2023-05-12T14:04:40.382Z,23.71
2023-05-12T14:07:08.585Z,23.52
2023-05-12T14:09:35.472Z,23.27
2023-05-12T14:12:02.496Z,23.29
2023-05-12T14:14:28.983Z,22.98
2023-05-12T14:16:55.621Z,22.92
2023-05-12T14:19:22.185Z,22.90
2023-05-12T14:21:49.029Z,22.82
2023-05-12T14:24:15.751Z,22.69
2023-05-12T14:26:42.212Z,22.68
2023-05-12T14:29:08.995Z,22.75
2023-05-12T14:31:35.656Z,22.90
2023-05-12T14:34:04.117Z,23.02
2023-05-12T14:36:30.870Z,23.04
2023-05-12T14:38:57.340Z,22.85
2023-05-12T14:41:24.376Z,22.88
2023-05-12T14:43:50.824Z,22.77
2023-05-12T14:46:17.437Z,22.65
2023-05-12T14:48:44.287Z,22.79
2023-05-12T14:51:10.924Z,22.94
2023-05-12T14:53:37.425Z,23.01
2023-05-12T14:56:04.110Z,22.76
2023-05-12T14:58:30.902Z,22.61
2023-05-12T15:00:57.610Z,22.57
2023-05-12T15:03:24.544Z,22.75
2023-05-12T15:08:21.714Z,23.12
2023-05-12T15:10:48.546Z,23.15
2023-05-12T15:13:17.697Z,23.12
2023-05-12T15:15:44.214Z,22.96
2023-05-12T15:18:10.731Z,22.96
2023-05-12T15:20:38.243Z,23.05
2023-05-12T15:23:05.277Z,23.09
2023-05-12T15:25:32.150Z,23.05
2023-05-12T15:27:58.643Z,22.99
2023-05-12T15:30:25.122Z,22.91
2023-05-12T15:32:51.668Z,22.75
2023-05-12T15:35:18.291Z,22.64
2023-05-12T15:37:44.907Z,22.61
2023-05-12T15:40:13.085Z,22.61
2023-05-12T15:42:40.280Z,22.70
2023-05-12T15:45:08.689Z,22.69
2023-05-12T15:47:36.035Z,22.74
2023-05-12T15:50:03.668Z,22.82
2023-05-12T15:52:30.667Z,22.84
2023-05-12T15:54:57.373Z,23.07
2023-05-12T15:57:23.885Z,22.87
2023-05-12T15:59:51.956Z,22.57
2023-05-12T16:02:18.633Z,22.37
2023-05-12T16:04:45.266Z,22.26
2023-05-12T16:07:11.864Z,22.12
2023-05-12T16:09:38.382Z,22.01
2023-05-12T16:12:06.841Z,21.71
2023-05-12T16:14:34.604Z,21.62
2023-05-12T16:17:01.083Z,21.48
2023-05-12T16:19:27.499Z,21.33
2023-05-12T16:21:54.665Z,21.06
2023-05-12T16:24:21.848Z,20.99
2023-05-12T16:26:48.293Z,20.90
2023-05-12T16:29:14.786Z,20.88
2023-05-12T16:31:41.337Z,20.88
2023-05-12T16:34:07.786Z,20.90
2023-05-12T16:36:34.354Z,20.91
2023-05-12T16:39:00.838Z,20.96
2023-05-12T16:41:28.752Z,20.93
2023-05-12T16:43:55.463Z,20.93
2023-05-12T16:46:22.299Z,21.01
2023-05-12T16:48:48.869Z,21.03
2023-05-12T16:51:15.437Z,21.10
2023-05-12T16:53:42.096Z,21.21
2023-05-12T16:56:08.943Z,21.30
2023-05-12T16:58:35.682Z,21.28
2023-05-12T17:01:02.380Z,21.20
2023-05-12T17:03:29.546Z,21.10
2023-05-12T17:05:56.309Z,21.05
2023-05-12T17:08:23.231Z,20.97
2023-05-12T17:10:51.157Z,20.85
2023-05-12T17:13:17.725Z,20.79
2023-05-12T17:15:44.324Z,20.78
2023-05-12T17:18:12.693Z,20.75
2023-05-12T17:20:39.483Z,20.74
2023-05-12T17:23:05.964Z,20.67
2023-05-12T17:25:32.468Z,20.62
2023-05-12T17:27:58.920Z,20.51
2023-05-12T17:30:25.576Z,20.44
2023-05-12T17:32:52.154Z,20.38
2023-05-12T17:35:18.866Z,20.36
2023-05-12T17:37:45.821Z,20.26
2023-05-12T17:40:17.778Z,20.25
2023-05-12T17:42:44.699Z,20.26
2023-05-12T17:45:14.229Z,20.18
2023-05-12T17:47:40.993Z,20.05
2023-05-12T17:50:10.783Z,19.97
2023-05-12T17:52:41.105Z,19.88
2023-05-12T17:55:08.310Z,19.81
2023-05-12T17:57:35.010Z,19.84
2023-05-12T18:00:06.382Z,19.85
2023-05-12T18:02:32.883Z,19.76
2023-05-12T18:04:59.859Z,19.74
2023-05-12T18:07:27.122Z,19.77
2023-05-12T18:09:53.581Z,19.71
2023-05-12T18:12:20.100Z,19.54
2023-05-12T18:14:47.014Z,19.53
2023-05-12T18:17:13.569Z,19.59
2023-05-12T18:19:40.116Z,19.66
2023-05-12T18:22:06.839Z,19.63
2023-05-12T18:24:33.286Z,19.60
2023-05-12T18:26:59.835Z,19.62
2023-05-12T18:29:26.322Z,19.63
2023-05-12T18:31:52.966Z,19.57
2023-05-12T18:34:19.646Z,19.40
2023-05-12T18:36:46.778Z,19.27
2023-05-12T18:39:14.705Z,19.21
2023-05-12T18:41:41.871Z,19.10
2023-05-12T18:44:08.871Z,19.03
2023-05-12T18:46:35.449Z,18.98
2023-05-12T18:49:02.065Z,18.91
2023-05-12T18:51:28.722Z,18.85
2023-05-12T18:53:55.248Z,18.80
2023-05-12T18:56:21.754Z,18.77
2023-05-12T18:58:48.204Z,18.67
2023-05-12T19:01:14.695Z,18.56
2023-05-12T19:03:41.354Z,18.55
2023-05-12T19:06:07.851Z,18.58
2023-05-12T19:08:34.330Z,18.54
2023-05-12T19:11:00.849Z,18.40
2023-05-12T19:13:27.359Z,18.30
2023-05-12T19:15:53.840Z,18.40
2023-05-12T19:18:21.557Z,18.40
2023-05-12T19:20:48.273Z,18.44
2023-05-12T19:23:15.703Z,18.29
2023-05-12T19:25:43.508Z,18.12
2023-05-12T19:28:11.843Z,18.05
2023-05-12T19:30:38.342Z,18.08
2023-05-12T19:33:04.907Z,17.94
2023-05-12T19:35:31.487Z,17.87
2023-05-12T19:37:58.060Z,17.73
2023-05-12T19:40:24.553Z,17.68
2023-05-12T19:42:52.882Z,17.61
2023-05-12T19:45:19.600Z,17.62
2023-05-12T19:47:46.214Z,17.57
2023-05-12T19:50:12.808Z,17.42
2023-05-12T19:52:39.614Z,17.41
2023-05-12T19:55:08.539Z,17.38
2023-05-12T19:57:35.640Z,17.23
2023-05-12T20:00:02.128Z,17.21
2023-05-12T20:02:30.907Z,17.09
2023-05-12T20:05:01.448Z,17.05
2023-05-12T20:07:28.371Z,17.05
2023-05-12T20:09:54.977Z,16.96
2023-05-12T20:12:21.570Z,16.89
2023-05-12T20:14:48.177Z,16.88
2023-05-12T20:17:14.748Z,16.84
2023-05-12T20:19:41.276Z,16.83
2023-05-12T20:22:07.706Z,16.87
2023-05-12T20:24:34.172Z,16.83
2023-05-12T20:27:00.670Z,16.76
2023-05-12T20:29:27.577Z,16.69
2023-05-12T20:31:54.471Z,16.68
2023-05-12T20:34:20.966Z,16.66
2023-05-12T20:36:47.556Z,16.63
2023-05-12T20:39:15.159Z,16.53
2023-05-12T20:41:43.544Z,16.46
2023-05-12T20:44:10.075Z,16.45
2023-05-12T20:46:38.914Z,16.50
2023-05-12T20:49:06.264Z,16.54
2023-05-12T20:51:33.389Z,16.55
2023-05-12T20:53:59.953Z,16.46
2023-05-12T20:56:26.956Z,16.58
2023-05-12T20:58:53.671Z,16.57
2023-05-12T21:01:20.257Z,16.55
2023-05-12T21:03:46.919Z,16.51
2023-05-12T21:06:13.393Z,16.41
2023-05-12T21:08:40.052Z,16.35
2023-05-12T21:11:17.464Z,16.37
2023-05-12T21:13:48.287Z,16.38
2023-05-12T21:16:15.745Z,16.40
2023-05-12T21:18:42.290Z,16.36
2023-05-12T21:21:08.907Z,16.40
2023-05-12T21:23:38.738Z,16.34
2023-05-12T21:26:05.444Z,16.37
2023-05-12T21:28:32.146Z,16.26
2023-05-12T21:30:58.647Z,16.16
2023-05-12T21:33:25.165Z,16.17
2023-05-12T21:35:51.692Z,16.23
2023-05-12T21:38:18.164Z,16.22
2023-05-12T21:40:49.154Z,16.19
2023-05-12T21:43:15.610Z,16.16
2023-05-12T21:45:42.086Z,16.10
2023-05-12T21:48:08.781Z,16.04
2023-05-12T21:50:35.343Z,16.00
2023-05-12T21:53:02.051Z,15.98
2023-05-12T21:55:28.595Z,15.91
2023-05-12T21:57:55.061Z,15.91
2023-05-12T22:00:21.827Z,15.86
2023-05-12T22:02:48.531Z,15.89
2023-05-12T22:05:15.129Z,15.89
2023-05-12T22:07:41.911Z,15.82
2023-05-12T22:10:08.782Z,15.83
2023-05-12T22:12:35.301Z,15.83
2023-05-12T22:15:01.806Z,15.88
2023-05-12T22:17:28.371Z,15.82
2023-05-12T22:19:54.892Z,15.81
2023-05-12T22:22:21.370Z,15.81
2023-05-12T22:24:47.802Z,15.79
2023-05-12T22:27:14.404Z,15.73
2023-05-12T22:29:40.824Z,15.71
2023-05-12T22:32:07.316Z,15.72
2023-05-12T22:34:33.730Z,15.70
2023-05-12T22:37:00.309Z,15.69
2023-05-12T22:39:26.802Z,15.65
2023-05-12T22:41:53.284Z,15.53
2023-05-12T22:44:19.734Z,15.51
2023-05-12T22:46:46.381Z,15.56
2023-05-12T22:49:12.867Z,15.51
2023-05-12T22:51:39.364Z,15.51
2023-05-12T22:54:05.898Z,15.53
2023-05-12T22:56:32.322Z,15.55
2023-05-12T22:58:58.844Z,15.58
2023-05-12T23:01:25.423Z,15.58
2023-05-12T23:03:51.973Z,15.61
2023-05-12T23:06:18.494Z,15.68
2023-05-12T23:08:45.281Z,15.71
2023-05-12T23:11:12.868Z,15.72
2023-05-12T23:13:39.325Z,15.68
2023-05-12T23:16:06.901Z,15.64
2023-05-12T23:18:33.480Z,15.54
2023-05-12T23:21:00.124Z,15.50
2023-05-12T23:23:26.727Z,15.53
2023-05-12T23:25:53.153Z,15.61
2023-05-12T23:28:19.709Z,15.62
2023-05-12T23:30:46.345Z,15.56
2023-05-12T23:33:12.990Z,15.51
2023-05-12T23:35:39.498Z,15.52
2023-05-12T23:38:05.982Z,15.48
2023-05-12T23:40:33.495Z,15.49
2023-05-12T23:42:59.958Z,15.43
2023-05-12T23:45:26.490Z,15.38
2023-05-12T23:47:53.035Z,15.43
2023-05-12T23:50:19.771Z,15.47
2023-05-12T23:52:46.337Z,15.43
2023-05-12T23:55:12.820Z,15.37
2023-05-12T23:57:39.365Z,15.39
